sensor_id;sensor_type;location;lat;lon;timestamp;P1;durP1;ratioP1;P2;durP2;ratioP2
14169;SDS011;63889;50.596;8.690;2023-05-07T00:00:32;6.10;;;2.80;;
14169;SDS011;63889;50.596;8.690;2023-05-07T00:02:59;4.93;;;2.45;;
14169;SDS011;63889;50.596;8.690;2023-05-07T00:05:24;3.42;;;2.55;;
14169;SDS011;63889;50.596;8.690;2023-05-07T00:07:50;5.75;;;2.78;;
14169;SDS011;63889;50.596;8.690;2023-05-07T00:10:17;11.20;;;2.85;;
14169;SDS011;63889;50.596;8.690;2023-05-07T00:12:43;8.75;;;2.78;;
14169;SDS011;63889;50.596;8.690;2023-05-07T00:15:09;5.88;;;3.00;;
14169;SDS011;63889;50.596;8.690;2023-05-07T00:17:34;3.75;;;2.72;;
14169;SDS011;63889;50.596;8.690;2023-05-07T00:20:00;5.72;;;2.90;;
14169;SDS011;63889;50.596;8.690;2023-05-07T00:22:26;6.07;;;2.38;;
14169;SDS011;63889;50.596;8.690;2023-05-07T00:24:51;4.80;;;2.47;;
14169;SDS011;63889;50.596;8.690;2023-05-07T00:27:17;6.32;;;2.47;;
14169;SDS011;63889;50.596;8.690;2023-05-07T00:29:42;7.65;;;2.90;;
14169;SDS011;63889;50.596;8.690;2023-05-07T00:32:08;6.47;;;2.50;;
14169;SDS011;63889;50.596;8.690;2023-05-07T00:34:33;4.80;;;2.72;;
14169;SDS011;63889;50.596;8.690;2023-05-07T00:36:59;5.72;;;2.88;;
14169;SDS011;63889;50.596;8.690;2023-05-07T00:39:25;4.35;;;2.83;;
14169;SDS011;63889;50.596;8.690;2023-05-07T00:41:51;4.22;;;2.55;;
14169;SDS011;63889;50.596;8.690;2023-05-07T00:44:17;3.70;;;2.28;;
14169;SDS011;63889;50.596;8.690;2023-05-07T00:46:43;4.55;;;2.47;;
14169;SDS011;63889;50.596;8.690;2023-05-07T00:49:10;3.60;;;2.30;;
14169;SDS011;63889;50.596;8.690;2023-05-07T00:51:36;4.03;;;2.15;;
14169;SDS011;63889;50.596;8.690;2023-05-07T00:54:02;5.05;;;2.50;;
14169;SDS011;63889;50.596;8.690;2023-05-07T00:56:28;6.38;;;3.17;;
14169;SDS011;63889;50.596;8.690;2023-05-07T00:58:54;4.50;;;3.08;;
14169;SDS011;63889;50.596;8.690;2023-05-07T01:01:19;7.15;;;2.45;;
14169;SDS011;63889;50.596;8.690;2023-05-07T01:03:46;4.53;;;2.78;;
14169;SDS011;63889;50.596;8.690;2023-05-07T01:06:12;6.50;;;2.83;;
14169;SDS011;63889;50.596;8.690;2023-05-07T01:08:41;3.90;;;2.63;;
14169;SDS011;63889;50.596;8.690;2023-05-07T01:11:07;2.92;;;2.22;;
14169;SDS011;63889;50.596;8.690;2023-05-07T01:13:34;4.32;;;3.00;;
14169;SDS011;63889;50.596;8.690;2023-05-07T01:16:01;7.13;;;2.95;;
14169;SDS011;63889;50.596;8.690;2023-05-07T01:18:28;5.57;;;3.03;;
14169;SDS011;63889;50.596;8.690;2023-05-07T01:20:58;3.90;;;2.58;;
14169;SDS011;63889;50.596;8.690;2023-05-07T01:23:26;4.63;;;2.92;;
14169;SDS011;63889;50.596;8.690;2023-05-07T01:25:53;3.72;;;2.08;;
14169;SDS011;63889;50.596;8.690;2023-05-07T01:28:19;4.65;;;2.63;;
14169;SDS011;63889;50.596;8.690;2023-05-07T01:30:46;5.60;;;2.72;;
14169;SDS011;63889;50.596;8.690;2023-05-07T01:33:17;5.45;;;2.80;;
14169;SDS011;63889;50.596;8.690;2023-05-07T01:35:47;4.47;;;2.72;;
14169;SDS011;63889;50.596;8.690;2023-05-07T01:38:16;7.20;;;3.30;;
14169;SDS011;63889;50.596;8.690;2023-05-07T01:40:43;3.78;;;2.90;;
14169;SDS011;63889;50.596;8.690;2023-05-07T01:43:08;4.63;;;2.90;;
14169;SDS011;63889;50.596;8.690;2023-05-07T01:45:35;4.65;;;2.80;;
14169;SDS011;63889;50.596;8.690;2023-05-07T01:48:01;5.97;;;2.80;;
14169;SDS011;63889;50.596;8.690;2023-05-07T01:50:28;6.90;;;2.95;;
14169;SDS011;63889;50.596;8.690;2023-05-07T01:52:54;5.30;;;2.45;;
14169;SDS011;63889;50.596;8.690;2023-05-07T01:55:20;5.03;;;2.70;;
14169;SDS011;63889;50.596;8.690;2023-05-07T01:57:49;4.95;;;2.92;;
14169;SDS011;63889;50.596;8.690;2023-05-07T02:00:14;7.25;;;3.60;;
14169;SDS011;63889;50.596;8.690;2023-05-07T02:02:40;6.10;;;3.10;;
14169;SDS011;63889;50.596;8.690;2023-05-07T02:05:06;5.50;;;3.08;;
14169;SDS011;63889;50.596;8.690;2023-05-07T02:07:32;4.43;;;2.60;;
14169;SDS011;63889;50.596;8.690;2023-05-07T02:09:57;3.78;;;2.67;;
14169;SDS011;63889;50.596;8.690;2023-05-07T02:12:23;3.67;;;2.65;;
14169;SDS011;63889;50.596;8.690;2023-05-07T02:14:49;6.70;;;3.40;;
14169;SDS011;63889;50.596;8.690;2023-05-07T02:17:14;5.63;;;3.00;;
14169;SDS011;63889;50.596;8.690;2023-05-07T02:19:40;3.38;;;2.72;;
14169;SDS011;63889;50.596;8.690;2023-05-07T02:22:06;7.63;;;3.10;;
14169;SDS011;63889;50.596;8.690;2023-05-07T02:24:32;12.95;;;3.58;;
14169;SDS011;63889;50.596;8.690;2023-05-07T02:26:57;4.63;;;3.20;;
14169;SDS011;63889;50.596;8.690;2023-05-07T02:29:23;4.25;;;2.88;;
14169;SDS011;63889;50.596;8.690;2023-05-07T02:31:48;4.85;;;3.05;;
14169;SDS011;63889;50.596;8.690;2023-05-07T02:34:16;6.80;;;3.63;;
14169;SDS011;63889;50.596;8.690;2023-05-07T02:36:41;4.25;;;2.60;;
14169;SDS011;63889;50.596;8.690;2023-05-07T02:39:07;3.10;;;2.80;;
14169;SDS011;63889;50.596;8.690;2023-05-07T02:41:33;6.30;;;2.90;;
14169;SDS011;63889;50.596;8.690;2023-05-07T02:43:58;7.63;;;3.35;;
14169;SDS011;63889;50.596;8.690;2023-05-07T02:46:24;5.53;;;3.53;;
14169;SDS011;63889;50.596;8.690;2023-05-07T02:48:49;4.93;;;3.47;;
14169;SDS011;63889;50.596;8.690;2023-05-07T02:51:16;4.78;;;3.03;;
14169;SDS011;63889;50.596;8.690;2023-05-07T02:53:44;7.63;;;3.45;;
14169;SDS011;63889;50.596;8.690;2023-05-07T02:56:11;5.15;;;3.25;;
14169;SDS011;63889;50.596;8.690;2023-05-07T02:58:36;5.45;;;3.10;;
14169;SDS011;63889;50.596;8.690;2023-05-07T03:01:04;6.10;;;3.20;;
14169;SDS011;63889;50.596;8.690;2023-05-07T03:03:30;4.18;;;2.97;;
14169;SDS011;63889;50.596;8.690;2023-05-07T03:05:55;8.68;;;3.97;;
14169;SDS011;63889;50.596;8.690;2023-05-07T03:08:21;3.83;;;2.92;;
14169;SDS011;63889;50.596;8.690;2023-05-07T03:10:47;4.05;;;3.10;;
14169;SDS011;63889;50.596;8.690;2023-05-07T03:13:13;7.68;;;3.92;;
14169;SDS011;63889;50.596;8.690;2023-05-07T03:15:39;5.90;;;3.75;;
14169;SDS011;63889;50.596;8.690;2023-05-07T03:18:05;8.52;;;3.95;;
14169;SDS011;63889;50.596;8.690;2023-05-07T03:20:30;6.72;;;3.83;;
14169;SDS011;63889;50.596;8.690;2023-05-07T03:22:56;6.35;;;3.65;;
14169;SDS011;63889;50.596;8.690;2023-05-07T03:25:22;4.97;;;3.65;;
14169;SDS011;63889;50.596;8.690;2023-05-07T03:27:47;5.57;;;3.40;;
14169;SDS011;63889;50.596;8.690;2023-05-07T03:30:13;8.05;;;4.20;;
14169;SDS011;63889;50.596;8.690;2023-05-07T03:32:39;8.80;;;4.25;;
14169;SDS011;63889;50.596;8.690;2023-05-07T03:35:04;6.85;;;3.67;;
14169;SDS011;63889;50.596;8.690;2023-05-07T03:37:30;9.93;;;4.60;;
14169;SDS011;63889;50.596;8.690;2023-05-07T03:39:56;7.57;;;4.30;;
14169;SDS011;63889;50.596;8.690;2023-05-07T03:42:21;8.50;;;5.03;;
14169;SDS011;63889;50.596;8.690;2023-05-07T03:44:47;9.32;;;4.55;;
14169;SDS011;63889;50.596;8.690;2023-05-07T03:47:12;6.60;;;4.43;;
14169;SDS011;63889;50.596;8.690;2023-05-07T03:49:38;7.07;;;5.07;;
14169;SDS011;63889;50.596;8.690;2023-05-07T03:52:04;7.75;;;5.22;;
14169;SDS011;63889;50.596;8.690;2023-05-07T03:54:30;9.27;;;5.68;;
14169;SDS011;63889;50.596;8.690;2023-05-07T03:56:56;8.65;;;5.28;;
14169;SDS011;63889;50.596;8.690;2023-05-07T03:59:22;9.05;;;5.35;;
14169;SDS011;63889;50.596;8.690;2023-05-07T04:01:47;14.48;;;5.97;;
14169;SDS011;63889;50.596;8.690;2023-05-07T04:04:14;10.00;;;5.60;;
14169;SDS011;63889;50.596;8.690;2023-05-07T04:06:39;11.88;;;6.70;;
14169;SDS011;63889;50.596;8.690;2023-05-07T04:09:05;13.05;;;6.28;;
14169;SDS011;63889;50.596;8.690;2023-05-07T04:11:31;11.60;;;6.90;;
14169;SDS011;63889;50.596;8.690;2023-05-07T04:13:57;9.35;;;6.43;;
14169;SDS011;63889;50.596;8.690;2023-05-07T04:16:22;11.35;;;6.97;;
14169;SDS011;63889;50.596;8.690;2023-05-07T04:18:48;12.20;;;6.00;;
14169;SDS011;63889;50.596;8.690;2023-05-07T04:21:17;16.33;;;7.05;;
14169;SDS011;63889;50.596;8.690;2023-05-07T04:23:44;9.48;;;7.20;;
14169;SDS011;63889;50.596;8.690;2023-05-07T04:26:10;10.57;;;6.78;;
14169;SDS011;63889;50.596;8.690;2023-05-07T04:28:36;11.57;;;7.30;;
14169;SDS011;63889;50.596;8.690;2023-05-07T04:31:01;11.27;;;7.18;;
14169;SDS011;63889;50.596;8.690;2023-05-07T04:33:27;13.45;;;7.70;;
14169;SDS011;63889;50.596;8.690;2023-05-07T04:35:53;14.95;;;8.48;;
14169;SDS011;63889;50.596;8.690;2023-05-07T04:38:18;15.63;;;8.27;;
14169;SDS011;63889;50.596;8.690;2023-05-07T04:40:44;14.40;;;8.07;;
14169;SDS011;63889;50.596;8.690;2023-05-07T04:43:09;13.68;;;7.97;;
14169;SDS011;63889;50.596;8.690;2023-05-07T04:45:35;16.23;;;9.18;;
14169;SDS011;63889;50.596;8.690;2023-05-07T04:48:01;15.82;;;9.30;;
14169;SDS011;63889;50.596;8.690;2023-05-07T04:50:27;14.45;;;9.18;;
14169;SDS011;63889;50.596;8.690;2023-05-07T04:52:52;15.57;;;9.98;;
14169;SDS011;63889;50.596;8.690;2023-05-07T04:55:18;15.93;;;9.18;;
14169;SDS011;63889;50.596;8.690;2023-05-07T04:57:43;20.50;;;10.43;;
14169;SDS011;63889;50.596;8.690;2023-05-07T05:00:10;14.35;;;8.98;;
14169;SDS011;63889;50.596;8.690;2023-05-07T05:02:39;21.23;;;10.52;;
14169;SDS011;63889;50.596;8.690;2023-05-07T05:05:04;15.98;;;9.40;;
14169;SDS011;63889;50.596;8.690;2023-05-07T05:07:30;15.93;;;9.95;;
14169;SDS011;63889;50.596;8.690;2023-05-07T05:09:56;19.67;;;10.73;;
14169;SDS011;63889;50.596;8.690;2023-05-07T05:12:22;19.05;;;9.88;;
14169;SDS011;63889;50.596;8.690;2023-05-07T05:14:48;18.02;;;10.52;;
14169;SDS011;63889;50.596;8.690;2023-05-07T05:17:13;24.63;;;11.20;;
14169;SDS011;63889;50.596;8.690;2023-05-07T05:19:39;20.05;;;10.75;;
14169;SDS011;63889;50.596;8.690;2023-05-07T05:22:05;19.30;;;11.10;;
14169;SDS011;63889;50.596;8.690;2023-05-07T05:24:30;17.17;;;11.32;;
14169;SDS011;63889;50.596;8.690;2023-05-07T05:26:56;18.88;;;11.63;;
14169;SDS011;63889;50.596;8.690;2023-05-07T05:29:22;19.25;;;10.93;;
14169;SDS011;63889;50.596;8.690;2023-05-07T05:31:47;22.08;;;11.75;;
14169;SDS011;63889;50.596;8.690;2023-05-07T05:34:13;18.60;;;11.68;;
14169;SDS011;63889;50.596;8.690;2023-05-07T05:36:39;18.80;;;11.18;;
14169;SDS011;63889;50.596;8.690;2023-05-07T05:39:04;22.13;;;12.80;;
14169;SDS011;63889;50.596;8.690;2023-05-07T05:41:30;26.33;;;13.13;;
14169;SDS011;63889;50.596;8.690;2023-05-07T05:43:59;20.92;;;12.02;;
14169;SDS011;63889;50.596;8.690;2023-05-07T05:46:24;19.20;;;12.45;;
14169;SDS011;63889;50.596;8.690;2023-05-07T05:48:50;19.63;;;12.45;;
14169;SDS011;63889;50.596;8.690;2023-05-07T05:51:16;20.58;;;12.95;;
14169;SDS011;63889;50.596;8.690;2023-05-07T05:53:41;26.13;;;13.48;;
14169;SDS011;63889;50.596;8.690;2023-05-07T05:56:07;21.58;;;12.88;;
14169;SDS011;63889;50.596;8.690;2023-05-07T05:58:32;25.60;;;13.63;;
14169;SDS011;63889;50.596;8.690;2023-05-07T06:00:58;19.02;;;12.60;;
14169;SDS011;63889;50.596;8.690;2023-05-07T06:03:23;21.85;;;13.05;;
14169;SDS011;63889;50.596;8.690;2023-05-07T06:05:49;21.15;;;13.05;;
14169;SDS011;63889;50.596;8.690;2023-05-07T06:08:15;25.70;;;13.50;;
14169;SDS011;63889;50.596;8.690;2023-05-07T06:10:40;24.50;;;13.35;;
14169;SDS011;63889;50.596;8.690;2023-05-07T06:13:06;21.83;;;13.40;;
14169;SDS011;63889;50.596;8.690;2023-05-07T06:15:32;24.42;;;14.40;;
14169;SDS011;63889;50.596;8.690;2023-05-07T06:17:57;22.50;;;14.30;;
14169;SDS011;63889;50.596;8.690;2023-05-07T06:20:23;27.13;;;14.48;;
14169;SDS011;63889;50.596;8.690;2023-05-07T06:22:48;24.25;;;14.10;;
14169;SDS011;63889;50.596;8.690;2023-05-07T06:25:14;28.45;;;15.02;;
14169;SDS011;63889;50.596;8.690;2023-05-07T06:27:40;35.25;;;14.07;;
14169;SDS011;63889;50.596;8.690;2023-05-07T06:30:07;26.05;;;14.75;;
14169;SDS011;63889;50.596;8.690;2023-05-07T06:32:33;29.70;;;15.27;;
14169;SDS011;63889;50.596;8.690;2023-05-07T06:34:58;28.58;;;15.68;;
14169;SDS011;63889;50.596;8.690;2023-05-07T06:37:24;25.25;;;15.07;;
14169;SDS011;63889;50.596;8.690;2023-05-07T06:39:50;24.02;;;15.57;;
14169;SDS011;63889;50.596;8.690;2023-05-07T06:42:15;25.30;;;15.02;;
14169;SDS011;63889;50.596;8.690;2023-05-07T06:44:41;23.63;;;14.48;;
14169;SDS011;63889;50.596;8.690;2023-05-07T06:47:07;23.27;;;14.27;;
14169;SDS011;63889;50.596;8.690;2023-05-07T06:49:32;26.92;;;15.43;;
14169;SDS011;63889;50.596;8.690;2023-05-07T06:51:58;25.77;;;15.40;;
14169;SDS011;63889;50.596;8.690;2023-05-07T06:54:23;25.83;;;14.13;;
14169;SDS011;63889;50.596;8.690;2023-05-07T06:56:49;26.92;;;14.88;;
14169;SDS011;63889;50.596;8.690;2023-05-07T06:59:15;27.55;;;15.38;;
14169;SDS011;63889;50.596;8.690;2023-05-07T07:01:40;29.85;;;15.32;;
14169;SDS011;63889;50.596;8.690;2023-05-07T07:04:06;24.70;;;13.98;;
14169;SDS011;63889;50.596;8.690;2023-05-07T07:06:32;25.70;;;14.82;;
14169;SDS011;63889;50.596;8.690;2023-05-07T07:08:58;26.75;;;13.98;;
14169;SDS011;63889;50.596;8.690;2023-05-07T07:11:24;26.42;;;15.23;;
14169;SDS011;63889;50.596;8.690;2023-05-07T07:13:50;29.63;;;14.75;;
14169;SDS011;63889;50.596;8.690;2023-05-07T07:16:15;26.63;;;14.88;;
14169;SDS011;63889;50.596;8.690;2023-05-07T07:18:41;23.90;;;14.30;;
14169;SDS011;63889;50.596;8.690;2023-05-07T07:21:07;20.58;;;13.30;;
14169;SDS011;63889;50.596;8.690;2023-05-07T07:23:32;24.80;;;14.10;;
14169;SDS011;63889;50.596;8.690;2023-05-07T07:25:58;28.60;;;15.30;;
14169;SDS011;63889;50.596;8.690;2023-05-07T07:28:23;26.63;;;14.38;;
14169;SDS011;63889;50.596;8.690;2023-05-07T07:30:49;21.80;;;13.98;;
14169;SDS011;63889;50.596;8.690;2023-05-07T07:33:15;23.17;;;12.90;;
14169;SDS011;63889;50.596;8.690;2023-05-07T07:35:40;22.27;;;12.40;;
14169;SDS011;63889;50.596;8.690;2023-05-07T07:38:07;20.25;;;12.13;;
14169;SDS011;63889;50.596;8.690;2023-05-07T07:40:34;19.35;;;12.13;;
14169;SDS011;63889;50.596;8.690;2023-05-07T07:43:00;18.38;;;11.63;;
14169;SDS011;63889;50.596;8.690;2023-05-07T07:45:26;26.38;;;14.65;;
14169;SDS011;63889;50.596;8.690;2023-05-07T07:47:51;29.13;;;14.88;;
14169;SDS011;63889;50.596;8.690;2023-05-07T07:50:17;22.85;;;14.40;;
14169;SDS011;63889;50.596;8.690;2023-05-07T07:52:43;21.20;;;13.40;;
14169;SDS011;63889;50.596;8.690;2023-05-07T07:55:09;22.55;;;13.70;;
14169;SDS011;63889;50.596;8.690;2023-05-07T07:57:34;26.17;;;14.20;;
14169;SDS011;63889;50.596;8.690;2023-05-07T08:00:00;21.92;;;12.95;;
14169;SDS011;63889;50.596;8.690;2023-05-07T08:02:26;19.08;;;12.50;;
14169;SDS011;63889;50.596;8.690;2023-05-07T08:04:51;26.00;;;13.48;;
14169;SDS011;63889;50.596;8.690;2023-05-07T08:07:17;21.20;;;12.32;;
14169;SDS011;63889;50.596;8.690;2023-05-07T08:09:45;21.08;;;12.38;;
14169;SDS011;63889;50.596;8.690;2023-05-07T08:12:11;18.50;;;11.77;;
14169;SDS011;63889;50.596;8.690;2023-05-07T08:14:37;25.55;;;12.10;;
14169;SDS011;63889;50.596;8.690;2023-05-07T08:17:02;22.13;;;12.48;;
14169;SDS011;63889;50.596;8.690;2023-05-07T08:19:28;19.27;;;12.32;;
14169;SDS011;63889;50.596;8.690;2023-05-07T08:21:53;20.77;;;12.68;;
14169;SDS011;63889;50.596;8.690;2023-05-07T08:24:20;18.25;;;10.63;;
14169;SDS011;63889;50.596;8.690;2023-05-07T08:26:45;21.08;;;11.90;;
14169;SDS011;63889;50.596;8.690;2023-05-07T08:29:11;18.85;;;11.45;;
14169;SDS011;63889;50.596;8.690;2023-05-07T08:31:37;21.35;;;11.50;;
14169;SDS011;63889;50.596;8.690;2023-05-07T08:34:04;19.40;;;10.68;;
14169;SDS011;63889;50.596;8.690;2023-05-07T08:36:31;17.45;;;10.98;;
14169;SDS011;63889;50.596;8.690;2023-05-07T08:38:57;17.35;;;10.50;;
14169;SDS011;63889;50.596;8.690;2023-05-07T08:41:22;16.38;;;10.80;;
14169;SDS011;63889;50.596;8.690;2023-05-07T08:43:49;19.17;;;10.98;;
14169;SDS011;63889;50.596;8.690;2023-05-07T08:46:22;16.70;;;10.88;;
14169;SDS011;63889;50.596;8.690;2023-05-07T08:48:48;19.88;;;11.57;;
14169;SDS011;63889;50.596;8.690;2023-05-07T08:51:15;19.05;;;10.30;;
14169;SDS011;63889;50.596;8.690;2023-05-07T08:53:43;20.65;;;11.27;;
14169;SDS011;63889;50.596;8.690;2023-05-07T08:56:09;16.92;;;10.68;;
14169;SDS011;63889;50.596;8.690;2023-05-07T08:58:36;17.55;;;10.48;;
14169;SDS011;63889;50.596;8.690;2023-05-07T09:01:09;18.55;;;10.65;;
14169;SDS011;63889;50.596;8.690;2023-05-07T09:03:38;17.70;;;10.63;;
14169;SDS011;63889;50.596;8.690;2023-05-07T09:06:04;17.10;;;10.50;;
14169;SDS011;63889;50.596;8.690;2023-05-07T09:08:31;20.77;;;11.07;;
14169;SDS011;63889;50.596;8.690;2023-05-07T09:10:58;20.17;;;10.98;;
14169;SDS011;63889;50.596;8.690;2023-05-07T09:13:23;15.90;;;9.80;;
14169;SDS011;63889;50.596;8.690;2023-05-07T09:15:49;21.23;;;10.57;;
14169;SDS011;63889;50.596;8.690;2023-05-07T09:18:15;16.75;;;10.00;;
14169;SDS011;63889;50.596;8.690;2023-05-07T09:20:40;15.90;;;9.88;;
14169;SDS011;63889;50.596;8.690;2023-05-07T09:23:06;14.80;;;9.00;;
14169;SDS011;63889;50.596;8.690;2023-05-07T09:25:33;15.18;;;8.73;;
14169;SDS011;63889;50.596;8.690;2023-05-07T09:28:00;11.55;;;7.95;;
14169;SDS011;63889;50.596;8.690;2023-05-07T09:30:32;12.88;;;8.38;;
14169;SDS011;63889;50.596;8.690;2023-05-07T09:33:00;13.75;;;9.20;;
14169;SDS011;63889;50.596;8.690;2023-05-07T09:35:28;18.15;;;10.18;;
14169;SDS011;63889;50.596;8.690;2023-05-07T09:37:58;14.00;;;9.20;;
14169;SDS011;63889;50.596;8.690;2023-05-07T09:40:25;14.77;;;8.90;;
14169;SDS011;63889;50.596;8.690;2023-05-07T09:42:52;12.98;;;8.85;;
14169;SDS011;63889;50.596;8.690;2023-05-07T09:45:25;12.70;;;8.02;;
14169;SDS011;63889;50.596;8.690;2023-05-07T09:47:53;13.02;;;9.18;;
14169;SDS011;63889;50.596;8.690;2023-05-07T09:50:26;13.80;;;8.20;;
14169;SDS011;63889;50.596;8.690;2023-05-07T09:52:56;12.83;;;7.70;;
14169;SDS011;63889;50.596;8.690;2023-05-07T09:55:22;12.18;;;8.18;;
14169;SDS011;63889;50.596;8.690;2023-05-07T09:57:52;11.20;;;7.50;;
14169;SDS011;63889;50.596;8.690;2023-05-07T10:00:18;12.50;;;8.20;;
14169;SDS011;63889;50.596;8.690;2023-05-07T10:02:47;14.00;;;8.45;;
14169;SDS011;63889;50.596;8.690;2023-05-07T10:05:14;10.77;;;6.85;;
14169;SDS011;63889;50.596;8.690;2023-05-07T10:07:40;13.00;;;7.97;;
14169;SDS011;63889;50.596;8.690;2023-05-07T10:10:06;11.45;;;6.78;;
14169;SDS011;63889;50.596;8.690;2023-05-07T10:12:32;16.20;;;7.97;;
14169;SDS011;63889;50.596;8.690;2023-05-07T10:15:04;14.13;;;7.47;;
14169;SDS011;63889;50.596;8.690;2023-05-07T10:17:35;13.95;;;7.88;;
14169;SDS011;63889;50.596;8.690;2023-05-07T10:20:02;11.05;;;7.22;;
14169;SDS011;63889;50.596;8.690;2023-05-07T10:22:29;10.50;;;6.50;;
14169;SDS011;63889;50.596;8.690;2023-05-07T10:25:26;8.30;;;5.97;;
14169;SDS011;63889;50.596;8.690;2023-05-07T10:27:55;8.45;;;6.68;;
14169;SDS011;63889;50.596;8.690;2023-05-07T10:30:45;9.95;;;5.57;;
14169;SDS011;63889;50.596;8.690;2023-05-07T10:33:22;10.25;;;5.85;;
14169;SDS011;63889;50.596;8.690;2023-05-07T10:35:51;7.60;;;5.50;;
14169;SDS011;63889;50.596;8.690;2023-05-07T10:38:20;8.13;;;5.97;;
14169;SDS011;63889;50.596;8.690;2023-05-07T10:40:46;8.55;;;5.93;;
14169;SDS011;63889;50.596;8.690;2023-05-07T10:43:11;8.82;;;5.80;;
14169;SDS011;63889;50.596;8.690;2023-05-07T10:45:37;7.68;;;5.80;;
14169;SDS011;63889;50.596;8.690;2023-05-07T10:48:15;9.27;;;6.47;;
14169;SDS011;63889;50.596;8.690;2023-05-07T10:50:42;7.22;;;5.80;;
14169;SDS011;63889;50.596;8.690;2023-05-07T10:55:44;10.50;;;6.03;;
14169;SDS011;63889;50.596;8.690;2023-05-07T11:00:59;10.85;;;6.47;;
14169;SDS011;63889;50.596;8.690;2023-05-07T11:03:26;6.97;;;5.45;;
14169;SDS011;63889;50.596;8.690;2023-05-07T11:06:09;12.32;;;6.10;;
14169;SDS011;63889;50.596;8.690;2023-05-07T11:08:52;9.98;;;6.10;;
14169;SDS011;63889;50.596;8.690;2023-05-07T11:11:18;11.13;;;6.63;;
14169;SDS011;63889;50.596;8.690;2023-05-07T11:13:45;9.27;;;6.00;;
14169;SDS011;63889;50.596;8.690;2023-05-07T11:18:50;7.57;;;5.55;;
14169;SDS011;63889;50.596;8.690;2023-05-07T11:24:03;7.45;;;5.63;;
14169;SDS011;63889;50.596;8.690;2023-05-07T11:26:31;10.45;;;5.78;;
14169;SDS011;63889;50.596;8.690;2023-05-07T11:29:25;9.82;;;5.82;;
14169;SDS011;63889;50.596;8.690;2023-05-07T11:31:52;10.80;;;6.18;;
14169;SDS011;63889;50.596;8.690;2023-05-07T11:34:23;7.65;;;5.13;;
14169;SDS011;63889;50.596;8.690;2023-05-07T11:39:50;11.27;;;6.07;;
14169;SDS011;63889;50.596;8.690;2023-05-07T11:44:57;10.88;;;5.88;;
14169;SDS011;63889;50.596;8.690;2023-05-07T11:47:23;11.15;;;6.18;;
14169;SDS011;63889;50.596;8.690;2023-05-07T11:49:51;9.52;;;6.38;;
14169;SDS011;63889;50.596;8.690;2023-05-07T11:52:18;7.65;;;5.07;;
14169;SDS011;63889;50.596;8.690;2023-05-07T11:54:51;8.45;;;5.72;;
14169;SDS011;63889;50.596;8.690;2023-05-07T11:57:17;9.35;;;5.68;;
14169;SDS011;63889;50.596;8.690;2023-05-07T12:02:11;7.25;;;5.70;;
14169;SDS011;63889;50.596;8.690;2023-05-07T12:04:40;11.85;;;6.40;;
14169;SDS011;63889;50.596;8.690;2023-05-07T12:07:10;8.52;;;6.07;;
14169;SDS011;63889;50.596;8.690;2023-05-07T12:09:42;10.38;;;4.65;;
14169;SDS011;63889;50.596;8.690;2023-05-07T12:12:12;5.53;;;4.90;;
14169;SDS011;63889;50.596;8.690;2023-05-07T12:14:44;7.28;;;4.90;;
14169;SDS011;63889;50.596;8.690;2023-05-07T12:17:10;6.07;;;4.68;;
14169;SDS011;63889;50.596;8.690;2023-05-07T12:19:38;11.88;;;5.30;;
14169;SDS011;63889;50.596;8.690;2023-05-07T12:22:04;7.68;;;5.00;;
14169;SDS011;63889;50.596;8.690;2023-05-07T12:24:48;5.00;;;3.88;;
14169;SDS011;63889;50.596;8.690;2023-05-07T12:27:15;8.23;;;4.93;;
14169;SDS011;63889;50.596;8.690;2023-05-07T12:29:45;5.63;;;4.72;;
14169;SDS011;63889;50.596;8.690;2023-05-07T12:32:18;6.13;;;4.60;;
14169;SDS011;63889;50.596;8.690;2023-05-07T12:34:45;6.97;;;5.07;;
14169;SDS011;63889;50.596;8.690;2023-05-07T12:37:14;6.25;;;4.88;;
14169;SDS011;63889;50.596;8.690;2023-05-07T12:39:49;6.72;;;5.03;;
14169;SDS011;63889;50.596;8.690;2023-05-07T12:42:35;6.80;;;5.32;;
14169;SDS011;63889;50.596;8.690;2023-05-07T12:45:11;8.07;;;4.82;;
14169;SDS011;63889;50.596;8.690;2023-05-07T12:47:38;7.50;;;5.18;;
14169;SDS011;63889;50.596;8.690;2023-05-07T12:50:07;8.70;;;5.40;;
14169;SDS011;63889;50.596;8.690;2023-05-07T12:52:33;6.03;;;5.18;;
14169;SDS011;63889;50.596;8.690;2023-05-07T12:55:04;6.80;;;4.45;;
14169;SDS011;63889;50.596;8.690;2023-05-07T12:57:31;9.77;;;5.22;;
14169;SDS011;63889;50.596;8.690;2023-05-07T13:00:07;6.97;;;4.80;;
14169;SDS011;63889;50.596;8.690;2023-05-07T13:02:34;7.13;;;5.13;;
14169;SDS011;63889;50.596;8.690;2023-05-07T13:05:02;6.15;;;4.85;;
14169;SDS011;63889;50.596;8.690;2023-05-07T13:07:28;6.13;;;5.00;;
14169;SDS011;63889;50.596;8.690;2023-05-07T13:09:54;6.32;;;5.03;;
14169;SDS011;63889;50.596;8.690;2023-05-07T13:12:20;6.15;;;4.75;;
14169;SDS011;63889;50.596;8.690;2023-05-07T13:14:45;4.32;;;3.90;;
14169;SDS011;63889;50.596;8.690;2023-05-07T13:17:11;7.85;;;4.22;;
14169;SDS011;63889;50.596;8.690;2023-05-07T13:19:36;5.43;;;4.00;;
14169;SDS011;63889;50.596;8.690;2023-05-07T13:22:02;12.25;;;3.85;;
14169;SDS011;63889;50.596;8.690;2023-05-07T13:24:28;4.15;;;3.72;;
14169;SDS011;63889;50.596;8.690;2023-05-07T13:26:53;6.70;;;4.13;;
14169;SDS011;63889;50.596;8.690;2023-05-07T13:29:19;6.35;;;4.20;;
14169;SDS011;63889;50.596;8.690;2023-05-07T13:31:50;5.28;;;3.97;;
14169;SDS011;63889;50.596;8.690;2023-05-07T13:34:15;4.47;;;3.92;;
14169;SDS011;63889;50.596;8.690;2023-05-07T13:36:41;5.80;;;3.92;;
14169;SDS011;63889;50.596;8.690;2023-05-07T13:39:07;7.97;;;4.57;;
14169;SDS011;63889;50.596;8.690;2023-05-07T13:41:34;5.50;;;3.85;;
14169;SDS011;63889;50.596;8.690;2023-05-07T13:43:59;8.63;;;3.75;;
14169;SDS011;63889;50.596;8.690;2023-05-07T13:46:25;4.72;;;3.72;;
14169;SDS011;63889;50.596;8.690;2023-05-07T13:48:50;5.88;;;4.10;;
14169;SDS011;63889;50.596;8.690;2023-05-07T13:51:16;4.43;;;3.72;;
14169;SDS011;63889;50.596;8.690;2023-05-07T13:53:41;7.47;;;5.10;;
14169;SDS011;63889;50.596;8.690;2023-05-07T13:56:07;5.75;;;3.97;;
14169;SDS011;63889;50.596;8.690;2023-05-07T13:58:33;9.02;;;3.60;;
14169;SDS011;63889;50.596;8.690;2023-05-07T14:00:58;3.10;;;2.80;;
14169;SDS011;63889;50.596;8.690;2023-05-07T14:03:24;5.60;;;3.40;;
14169;SDS011;63889;50.596;8.690;2023-05-07T14:05:49;4.25;;;3.10;;
14169;SDS011;63889;50.596;8.690;2023-05-07T14:08:15;6.45;;;3.33;;
14169;SDS011;63889;50.596;8.690;2023-05-07T14:10:42;7.93;;;3.15;;
14169;SDS011;63889;50.596;8.690;2023-05-07T14:13:08;4.45;;;3.42;;
14169;SDS011;63889;50.596;8.690;2023-05-07T14:15:33;4.80;;;3.10;;
14169;SDS011;63889;50.596;8.690;2023-05-07T14:17:59;5.53;;;4.00;;
14169;SDS011;63889;50.596;8.690;2023-05-07T14:20:25;7.53;;;3.63;;
14169;SDS011;63889;50.596;8.690;2023-05-07T14:22:51;3.45;;;3.10;;
14169;SDS011;63889;50.596;8.690;2023-05-07T14:25:16;4.47;;;3.65;;
14169;SDS011;63889;50.596;8.690;2023-05-07T14:27:42;6.60;;;3.58;;
14169;SDS011;63889;50.596;8.690;2023-05-07T14:30:08;7.18;;;4.40;;
14169;SDS011;63889;50.596;8.690;2023-05-07T14:32:34;8.75;;;4.85;;
14169;SDS011;63889;50.596;8.690;2023-05-07T14:34:59;5.22;;;3.70;;
14169;SDS011;63889;50.596;8.690;2023-05-07T14:37:25;4.88;;;3.60;;
14169;SDS011;63889;50.596;8.690;2023-05-07T14:39:50;5.22;;;3.90;;
14169;SDS011;63889;50.596;8.690;2023-05-07T14:42:16;4.75;;;3.65;;
14169;SDS011;63889;50.596;8.690;2023-05-07T14:44:42;5.38;;;3.00;;
14169;SDS011;63889;50.596;8.690;2023-05-07T14:47:09;3.67;;;3.00;;
14169;SDS011;63889;50.596;8.690;2023-05-07T14:49:35;6.00;;;2.80;;
14169;SDS011;63889;50.596;8.690;2023-05-07T14:52:01;4.43;;;3.22;;
14169;SDS011;63889;50.596;8.690;2023-05-07T14:54:26;3.75;;;3.35;;